createdAt,value
2022-11-23T00:00:13.116Z,33.10
2022-11-23T00:03:01.944Z,31.05
2022-11-23T00:05:52.144Z,36.33
2022-11-23T00:08:41.087Z,34.30
2022-11-23T00:11:30.297Z,30.02
2022-11-23T00:14:18.636Z,33.33
2022-11-23T00:17:07.229Z,27.63
2022-11-23T00:19:55.539Z,31.30
2022-11-23T00:22:45.260Z,34.28
2022-11-23T00:25:33.667Z,33.40
2022-11-23T00:28:21.997Z,33.90
2022-11-23T00:31:12.926Z,29.73
2022-11-23T00:34:01.225Z,33.17
2022-11-23T00:36:49.602Z,34.05
2022-11-23T00:39:39.250Z,29.13
2022-11-23T00:42:27.589Z,25.50
2022-11-23T00:45:16.089Z,31.38
2022-11-23T00:48:04.540Z,28.08
2022-11-23T00:50:52.878Z,29.08
2022-11-23T00:53:41.471Z,26.88
2022-11-23T00:56:32.075Z,30.02
2022-11-23T00:59:20.383Z,29.10
2022-11-23T01:02:08.724Z,27.98
2022-11-23T01:04:57.031Z,31.20
2022-11-23T01:07:45.369Z,26.88
2022-11-23T01:10:34.177Z,28.75
2022-11-23T01:13:23.845Z,28.13
2022-11-23T01:16:20.863Z,28.52
2022-11-23T01:19:13.817Z,30.23
2022-11-23T01:22:02.215Z,29.85
2022-11-23T01:24:51.461Z,27.05
2022-11-23T01:27:39.781Z,27.38
2022-11-23T01:30:29.721Z,28.45
2022-11-23T01:33:18.118Z,29.05
2022-11-23T01:36:14.030Z,25.80
2022-11-23T01:39:03.208Z,25.70
2022-11-23T01:41:51.527Z,29.33
2022-11-23T01:44:39.855Z,27.13
2022-11-23T01:47:29.599Z,29.27
2022-11-23T01:50:18.040Z,27.58
2022-11-23T01:53:06.895Z,33.30
2022-11-23T01:55:58.673Z,24.50
2022-11-23T01:58:51.946Z,27.67
2022-11-23T02:01:40.337Z,30.38
2022-11-23T02:04:33.802Z,31.35
2022-11-23T02:07:24.565Z,25.65
2022-11-23T02:10:15.983Z,27.13
2022-11-23T02:13:08.163Z,24.83
2022-11-23T02:15:58.793Z,27.98
2022-11-23T02:18:50.649Z,26.90
2022-11-23T02:21:41.415Z,28.95
2022-11-23T02:24:35.162Z,22.83
2022-11-23T02:27:26.202Z,25.95
2022-11-23T02:30:14.787Z,24.35
2022-11-23T02:33:05.975Z,23.40
2022-11-23T02:35:56.251Z,23.20
2022-11-23T02:38:44.713Z,25.27
2022-11-23T02:41:37.118Z,29.50
2022-11-23T02:44:38.461Z,29.20
2022-11-23T02:50:15.438Z,28.20
2022-11-23T02:53:03.792Z,28.27
2022-11-23T02:55:52.111Z,28.42
2022-11-23T02:58:40.448Z,27.42
2022-11-23T03:01:30.960Z,31.80
2022-11-23T03:04:25.893Z,30.65
2022-11-23T03:07:15.909Z,31.02
2022-11-23T03:10:05.368Z,33.83
2022-11-23T03:12:56.494Z,27.20
2022-11-23T03:15:45.394Z,25.92
2022-11-23T03:18:35.132Z,28.52
2022-11-23T03:21:23.473Z,28.38
2022-11-23T03:24:11.891Z,24.70
2022-11-23T03:27:00.274Z,28.65
2022-11-23T03:29:48.722Z,37.95
2022-11-23T03:32:37.304Z,26.85
2022-11-23T03:35:27.018Z,24.83
2022-11-23T03:38:15.845Z,29.48
2022-11-23T03:41:04.166Z,26.92
2022-11-23T03:43:52.493Z,23.83
2022-11-23T03:46:40.913Z,24.27
2022-11-23T03:49:29.565Z,23.65
2022-11-23T03:52:19.434Z,27.58
2022-11-23T03:55:08.465Z,22.85
2022-11-23T03:57:59.609Z,29.98
2022-11-23T04:00:47.974Z,26.38
2022-11-23T04:03:36.396Z,28.30
2022-11-23T04:06:24.758Z,23.50
2022-11-23T04:09:15.032Z,29.02
2022-11-23T04:12:03.394Z,23.73
2022-11-23T04:14:51.760Z,25.38
2022-11-23T04:17:40.108Z,32.63
2022-11-23T04:20:28.526Z,31.13
2022-11-23T04:23:16.806Z,25.33
2022-11-23T04:26:06.725Z,35.22
2022-11-23T04:28:55.016Z,32.72
2022-11-23T04:31:43.340Z,28.23
2022-11-23T04:34:31.659Z,27.73
2022-11-23T04:37:20.007Z,31.95
2022-11-23T04:40:09.468Z,28.77
2022-11-23T04:43:01.820Z,28.95
2022-11-23T04:45:50.543Z,27.20
2022-11-23T04:48:38.904Z,25.10
2022-11-23T04:51:27.240Z,33.13
2022-11-23T04:54:15.505Z,24.45
2022-11-23T04:57:03.854Z,27.48
2022-11-23T04:59:53.574Z,25.23
2022-11-23T05:02:41.942Z,30.25
2022-11-23T05:05:30.245Z,26.65
2022-11-23T05:08:18.639Z,28.38
2022-11-23T05:11:07.260Z,31.52
2022-11-23T05:13:55.588Z,30.02
2022-11-23T05:16:45.223Z,25.67
2022-11-23T05:19:33.803Z,28.48
2022-11-23T05:22:22.320Z,28.80
2022-11-23T05:25:11.004Z,28.33
2022-11-23T05:28:11.214Z,31.95
2022-11-23T05:31:07.854Z,31.13
2022-11-23T05:33:57.538Z,59.47
2022-11-23T05:36:45.874Z,120.75
2022-11-23T05:39:34.655Z,149.13
2022-11-23T05:42:23.524Z,156.45
2022-11-23T05:45:12.112Z,131.60
2022-11-23T05:48:00.957Z,76.00
2022-11-23T05:50:51.672Z,48.17
2022-11-23T05:53:39.970Z,34.55
2022-11-23T05:56:28.375Z,34.45
2022-11-23T05:59:16.700Z,29.08
2022-11-23T06:02:05.309Z,28.48
2022-11-23T06:04:53.650Z,26.75
2022-11-23T06:07:43.451Z,30.77
2022-11-23T06:10:31.849Z,26.33
2022-11-23T06:13:20.164Z,30.90
2022-11-23T06:16:08.867Z,24.88
2022-11-23T06:18:57.234Z,31.13
2022-11-23T06:21:50.210Z,28.27
2022-11-23T06:24:40.367Z,30.83
2022-11-23T06:27:28.838Z,33.03
2022-11-23T06:30:17.608Z,34.20
2022-11-23T06:33:06.329Z,37.88
2022-11-23T06:35:55.394Z,29.35
2022-11-23T06:38:43.725Z,29.08
2022-11-23T06:41:33.455Z,27.85
2022-11-23T06:44:21.894Z,25.85
2022-11-23T06:47:15.340Z,23.00
2022-11-23T06:50:06.077Z,24.42
2022-11-23T06:52:56.648Z,25.50
2022-11-23T06:55:44.967Z,25.77
2022-11-23T06:58:34.910Z,25.77
2022-11-23T07:01:23.280Z,24.92
2022-11-23T07:04:11.681Z,24.70
2022-11-23T07:06:59.962Z,29.17
2022-11-23T07:09:48.451Z,25.13
2022-11-23T07:12:36.799Z,21.65
2022-11-23T07:15:26.549Z,26.60
2022-11-23T07:18:16.560Z,31.38
2022-11-23T07:21:05.020Z,29.50
2022-11-23T07:23:53.394Z,20.65
2022-11-23T07:26:42.081Z,27.88
2022-11-23T07:29:30.698Z,20.33
2022-11-23T07:32:20.598Z,26.05
2022-11-23T07:35:09.780Z,25.67
2022-11-23T07:37:58.100Z,25.75
2022-11-23T07:40:49.823Z,25.27
2022-11-23T07:43:38.197Z,40.70
2022-11-23T07:46:26.506Z,38.15
2022-11-23T07:49:16.219Z,22.55
2022-11-23T07:52:04.919Z,21.10
2022-11-23T07:54:53.310Z,27.67
2022-11-23T07:57:41.622Z,20.05
2022-11-23T08:00:30.722Z,20.92
2022-11-23T08:03:27.736Z,19.60
2022-11-23T08:06:18.295Z,17.65
2022-11-23T08:09:06.659Z,18.98
2022-11-23T08:11:55.096Z,20.65
2022-11-23T08:14:43.398Z,16.40
2022-11-23T08:17:31.855Z,15.25
2022-11-23T08:20:23.015Z,19.92
2022-11-23T08:26:03.448Z,16.20
2022-11-23T08:28:53.170Z,14.93
2022-11-23T08:31:41.446Z,19.20
2022-11-23T08:34:30.138Z,15.88
2022-11-23T08:37:18.720Z,17.63
2022-11-23T08:40:09.851Z,15.63
2022-11-23T08:42:58.302Z,12.48
2022-11-23T08:45:46.592Z,16.15
2022-11-23T08:48:34.925Z,12.68
2022-11-23T08:51:23.477Z,12.10
2022-11-23T08:54:12.228Z,13.05
2022-11-23T08:57:01.892Z,13.77
2022-11-23T08:59:50.252Z,13.02
2022-11-23T09:02:38.583Z,15.45
2022-11-23T09:05:27.481Z,18.75
2022-11-23T09:08:16.520Z,15.73
2022-11-23T09:11:06.657Z,17.13
2022-11-23T09:13:56.557Z,17.45
2022-11-23T09:16:44.861Z,16.27
2022-11-23T09:19:33.288Z,18.33
2022-11-23T09:22:21.595Z,15.27
2022-11-23T09:25:10.338Z,15.82
2022-11-23T09:28:00.004Z,17.00
2022-11-23T09:30:49.775Z,14.48
2022-11-23T09:33:38.093Z,13.15
2022-11-23T09:36:26.479Z,16.20
2022-11-23T09:39:14.899Z,14.18
2022-11-23T09:42:32.817Z,12.60
2022-11-23T09:45:27.321Z,17.08
2022-11-23T09:48:44.433Z,11.50
2022-11-23T09:51:32.773Z,11.50
2022-11-23T09:54:27.696Z,13.15
2022-11-23T09:57:21.628Z,14.63
2022-11-23T10:00:19.887Z,10.85
2022-11-23T10:03:12.492Z,13.43
2022-11-23T10:06:08.246Z,13.43
2022-11-23T10:09:19.365Z,13.52
2022-11-23T10:12:26.781Z,9.40
2022-11-23T10:15:21.882Z,12.90
2022-11-23T10:18:23.794Z,17.25
2022-11-23T10:21:20.534Z,12.73
2022-11-23T10:24:20.157Z,10.93
2022-11-23T10:27:15.311Z,9.85
2022-11-23T10:30:04.013Z,9.95
2022-11-23T10:32:56.515Z,11.85
2022-11-23T10:35:44.828Z,10.60
2022-11-23T10:38:35.524Z,10.43
2022-11-23T10:41:23.873Z,10.90
2022-11-23T10:44:25.908Z,11.75
2022-11-23T10:47:37.962Z,10.73
2022-11-23T10:50:30.174Z,9.90
2022-11-23T10:53:23.934Z,11.00
2022-11-23T10:56:15.049Z,10.63
2022-11-23T11:02:01.745Z,11.85
2022-11-23T11:04:58.424Z,9.27
2022-11-23T11:07:48.131Z,12.13
2022-11-23T11:10:40.520Z,8.98
2022-11-23T11:13:31.316Z,8.50
2022-11-23T11:16:22.447Z,10.65
2022-11-23T11:22:30.099Z,13.13
2022-11-23T11:25:30.878Z,10.20
2022-11-23T11:28:26.431Z,8.35
2022-11-23T11:31:45.069Z,8.55
2022-11-23T11:34:42.967Z,8.52
2022-11-23T11:37:36.130Z,7.10
2022-11-23T11:40:33.224Z,7.13
2022-11-23T11:43:34.754Z,8.95
2022-11-23T11:46:33.966Z,10.90
2022-11-23T11:49:26.438Z,8.73
2022-11-23T11:52:22.109Z,10.90
2022-11-23T11:55:19.800Z,11.95
2022-11-23T11:58:12.572Z,5.18
2022-11-23T12:01:08.391Z,7.68
2022-11-23T12:04:00.544Z,6.85
2022-11-23T12:06:53.793Z,4.55
2022-11-23T12:09:45.967Z,8.50
2022-11-23T12:12:38.035Z,5.45
2022-11-23T12:15:48.857Z,4.13
2022-11-23T12:19:01.068Z,4.03
2022-11-23T12:22:22.867Z,9.85
2022-11-23T12:25:20.729Z,5.50
2022-11-23T12:28:22.299Z,5.65
2022-11-23T12:31:19.318Z,6.82
2022-11-23T12:34:18.989Z,5.95
2022-11-23T12:37:30.868Z,3.40
2022-11-23T12:40:31.900Z,3.00
2022-11-23T12:43:25.816Z,3.35
2022-11-23T12:46:23.326Z,9.13
2022-11-23T12:49:27.539Z,6.68
2022-11-23T12:52:30.743Z,6.75
2022-11-23T12:55:24.609Z,7.20
2022-11-23T12:58:20.460Z,7.50
2022-11-23T13:01:15.362Z,8.63
2022-11-23T13:04:44.506Z,4.28
2022-11-23T13:08:12.614Z,9.32
2022-11-23T13:11:16.799Z,4.45
2022-11-23T13:14:17.580Z,5.85
2022-11-23T13:17:29.577Z,8.55
2022-11-23T13:20:43.046Z,8.60
2022-11-23T13:23:37.197Z,6.35
2022-11-23T13:26:28.146Z,7.78
2022-11-23T13:29:58.586Z,6.78
2022-11-23T13:32:58.654Z,6.93
2022-11-23T13:36:09.208Z,7.05
2022-11-23T13:39:00.668Z,7.03
2022-11-23T13:42:01.666Z,6.38
2022-11-23T13:44:50.107Z,6.38
2022-11-23T13:47:42.432Z,9.10
2022-11-23T13:50:34.255Z,4.82
2022-11-23T13:53:24.668Z,12.48
2022-11-23T13:56:41.393Z,5.88
2022-11-23T13:59:33.457Z,5.50
2022-11-23T14:02:27.881Z,8.20
2022-11-23T14:05:59.125Z,4.65
2022-11-23T14:08:49.895Z,7.07
2022-11-23T14:11:50.190Z,5.07
2022-11-23T14:14:51.728Z,3.75
2022-11-23T14:18:06.536Z,7.53
2022-11-23T14:21:13.547Z,4.65
2022-11-23T14:24:39.373Z,8.57
2022-11-23T14:27:48.887Z,6.55
2022-11-23T14:30:47.785Z,5.43
2022-11-23T14:33:43.867Z,5.50
2022-11-23T14:36:40.538Z,6.05
2022-11-23T14:39:55.767Z,7.45
2022-11-23T14:42:46.421Z,5.05
2022-11-23T14:45:36.024Z,4.82
2022-11-23T14:48:28.986Z,5.15
2022-11-23T14:51:19.965Z,6.70
2022-11-23T14:54:11.267Z,6.65
2022-11-23T14:57:03.822Z,8.18
2022-11-23T14:59:55.428Z,8.45
2022-11-23T15:02:44.687Z,9.20
2022-11-23T15:05:34.952Z,9.27
2022-11-23T15:08:26.845Z,8.20
2022-11-23T15:11:19.058Z,13.70
2022-11-23T15:14:20.882Z,10.85
2022-11-23T15:17:16.258Z,11.85
2022-11-23T15:20:05.413Z,7.90
2022-11-23T15:22:53.976Z,11.27
2022-11-23T15:25:52.299Z,10.45
2022-11-23T15:28:40.936Z,6.57
2022-11-23T15:31:33.878Z,7.40
2022-11-23T15:34:23.011Z,9.43
2022-11-23T15:37:12.075Z,12.27
2022-11-23T15:40:01.229Z,8.15
2022-11-23T15:42:51.548Z,11.07
2022-11-23T15:45:59.818Z,11.00
2022-11-23T15:48:51.189Z,6.88
2022-11-23T15:51:41.945Z,5.70
2022-11-23T15:54:35.887Z,7.90
2022-11-23T15:57:28.264Z,9.80
2022-11-23T16:00:24.952Z,8.32
2022-11-23T16:03:33.749Z,7.30
2022-11-23T16:06:35.731Z,5.88
2022-11-23T16:09:58.536Z,8.77
2022-11-23T16:12:50.151Z,7.32
2022-11-23T16:15:42.056Z,6.97
2022-11-23T16:18:31.897Z,7.47
2022-11-23T16:21:21.776Z,7.55
2022-11-23T16:24:21.138Z,10.13
2022-11-23T16:27:16.316Z,9.40
2022-11-23T16:30:05.967Z,11.85
2022-11-23T16:32:54.447Z,8.55
2022-11-23T16:35:43.136Z,7.40
2022-11-23T16:38:31.942Z,8.65
2022-11-23T16:41:21.689Z,11.13
2022-11-23T16:44:10.042Z,10.23
2022-11-23T16:47:21.015Z,14.63
2022-11-23T16:50:13.805Z,18.10
2022-11-23T16:53:10.219Z,9.63
2022-11-23T16:55:59.870Z,11.27
2022-11-23T16:58:49.914Z,13.27
2022-11-23T17:01:40.249Z,13.30
2022-11-23T17:04:28.724Z,12.25
2022-11-23T17:07:17.519Z,13.32
2022-11-23T17:10:06.697Z,14.40
2022-11-23T17:12:56.825Z,12.23
2022-11-23T17:15:46.496Z,7.65
2022-11-23T17:18:34.850Z,14.38
2022-11-23T17:21:23.290Z,12.90
2022-11-23T17:24:12.880Z,12.70
2022-11-23T17:27:01.435Z,8.77
2022-11-23T17:29:54.732Z,13.50
2022-11-23T17:32:44.496Z,14.82
2022-11-23T17:35:36.895Z,11.48
2022-11-23T17:38:27.933Z,10.82
2022-11-23T17:41:16.793Z,16.30
2022-11-23T17:44:05.687Z,11.10
2022-11-23T17:46:58.668Z,12.35
2022-11-23T17:49:49.431Z,15.98
2022-11-23T17:52:40.611Z,14.68
2022-11-23T17:58:17.311Z,12.95
2022-11-23T18:01:05.991Z,13.45
2022-11-23T18:03:54.521Z,17.15
2022-11-23T18:06:44.318Z,11.75
2022-11-23T18:09:33.066Z,13.77
2022-11-23T18:12:21.591Z,15.88
2022-11-23T18:15:10.704Z,18.70
2022-11-23T18:18:04.383Z,17.77
2022-11-23T18:20:53.259Z,18.58
2022-11-23T18:23:43.186Z,17.50
2022-11-23T18:26:32.083Z,15.10
2022-11-23T18:29:20.524Z,52.92
2022-11-23T18:32:09.400Z,67.15
2022-11-23T18:34:57.738Z,28.63
2022-11-23T18:37:46.045Z,17.30
2022-11-23T18:40:35.770Z,20.02
2022-11-23T18:43:24.359Z,18.30
2022-11-23T18:46:19.044Z,17.42
2022-11-23T18:49:08.270Z,16.92
2022-11-23T18:51:56.619Z,19.10
2022-11-23T18:54:44.923Z,18.38
2022-11-23T18:57:34.633Z,17.42
2022-11-23T19:00:23.506Z,21.13
2022-11-23T19:03:12.710Z,19.98
2022-11-23T19:06:03.245Z,18.42
2022-11-23T19:08:54.523Z,16.70
2022-11-23T19:14:32.333Z,19.15
2022-11-23T19:17:20.655Z,20.92
2022-11-23T19:20:10.335Z,20.10
2022-11-23T19:22:58.665Z,17.52
2022-11-23T19:25:47.014Z,19.63
2022-11-23T19:28:35.982Z,21.77
2022-11-23T19:31:27.464Z,23.38
2022-11-23T19:34:15.812Z,21.30
2022-11-23T19:37:04.205Z,22.05
2022-11-23T19:39:52.571Z,19.55
2022-11-23T19:42:42.653Z,18.95
2022-11-23T19:45:30.942Z,17.83
2022-11-23T19:48:22.556Z,17.77
2022-11-23T19:51:13.017Z,21.63
2022-11-23T19:54:02.138Z,20.48
2022-11-23T19:56:51.027Z,21.58
2022-11-23T19:59:39.391Z,17.75
2022-11-23T20:02:29.978Z,18.13
2022-11-23T20:05:19.733Z,19.73
2022-11-23T20:08:08.749Z,22.10
2022-11-23T20:10:57.896Z,18.63
2022-11-23T20:13:46.262Z,18.95
2022-11-23T20:16:35.068Z,16.98
2022-11-23T20:19:23.910Z,22.40
2022-11-23T20:22:13.640Z,19.50
2022-11-23T20:25:01.936Z,22.65
2022-11-23T20:27:50.349Z,17.30
2022-11-23T20:30:38.742Z,16.73
2022-11-23T20:33:27.643Z,23.63
2022-11-23T20:36:17.587Z,18.00
2022-11-23T20:39:09.101Z,22.17
2022-11-23T20:41:58.709Z,17.55
2022-11-23T20:44:47.135Z,19.23
2022-11-23T20:47:35.545Z,35.85
2022-11-23T20:50:25.367Z,21.30
2022-11-23T20:53:13.758Z,23.05
2022-11-23T20:56:05.467Z,23.02
2022-11-23T20:58:56.394Z,19.35
2022-11-23T21:01:44.756Z,20.98
2022-11-23T21:04:33.375Z,19.80
2022-11-23T21:07:22.433Z,19.88
2022-11-23T21:10:31.252Z,22.00
2022-11-23T21:13:49.264Z,20.80
2022-11-23T21:16:40.668Z,20.30
2022-11-23T21:19:30.731Z,21.58
2022-11-23T21:22:19.343Z,19.90
2022-11-23T21:25:08.420Z,22.48
2022-11-23T21:27:58.194Z,24.10
2022-11-23T21:30:47.937Z,16.17
2022-11-23T21:33:37.286Z,18.10
2022-11-23T21:36:25.638Z,22.45
2022-11-23T21:39:14.856Z,20.60
2022-11-23T21:42:03.474Z,20.23
2022-11-23T21:44:52.025Z,18.85
2022-11-23T21:47:41.741Z,24.65
2022-11-23T21:50:30.106Z,18.20
2022-11-23T21:53:19.386Z,18.02
2022-11-23T21:56:09.567Z,21.02
2022-11-23T21:58:59.379Z,23.35
2022-11-23T22:01:47.801Z,21.35
2022-11-23T22:04:38.684Z,21.65
2022-11-23T22:07:27.033Z,22.48
2022-11-23T22:10:15.520Z,18.40
2022-11-23T22:13:03.896Z,23.02
2022-11-23T22:15:52.246Z,22.15
2022-11-23T22:18:40.637Z,21.10
2022-11-23T22:21:33.686Z,20.27
2022-11-23T22:24:22.602Z,18.55
2022-11-23T22:27:11.215Z,17.02
2022-11-23T22:29:59.505Z,16.90
2022-11-23T22:32:48.335Z,18.23
2022-11-23T22:35:36.634Z,21.30
2022-11-23T22:38:26.267Z,20.45
2022-11-23T22:41:16.278Z,18.77
2022-11-23T22:44:05.385Z,21.13
2022-11-23T22:46:53.654Z,19.70
2022-11-23T22:49:41.956Z,19.42
2022-11-23T22:52:30.277Z,18.65
2022-11-23T22:55:19.985Z,23.75
2022-11-23T22:58:08.609Z,21.83
2022-11-23T23:00:57.459Z,18.75
2022-11-23T23:03:46.637Z,25.35
2022-11-23T23:06:35.874Z,26.08
2022-11-23T23:09:24.294Z,21.02
2022-11-23T23:12:14.019Z,18.35
2022-11-23T23:15:03.634Z,18.27
2022-11-23T23:17:51.947Z,18.08
2022-11-23T23:20:40.328Z,18.42
2022-11-23T23:23:28.735Z,20.25
2022-11-23T23:26:18.622Z,16.88
2022-11-23T23:29:08.361Z,19.90
2022-11-23T23:31:56.755Z,16.13
2022-11-23T23:34:45.080Z,15.90
2022-11-23T23:37:33.473Z,19.05
2022-11-23T23:40:22.434Z,18.20
2022-11-23T23:43:10.808Z,18.13
2022-11-23T23:46:02.342Z,15.48
2022-11-23T23:48:50.745Z,21.00
2022-11-23T23:51:39.338Z,22.52
2022-11-23T23:54:27.715Z,20.52
2022-11-23T23:57:16.167Z,17.08
